createdAt,value
2023-04-14T00:00:34.587Z,1945.00
2023-04-14T00:01:34.664Z,1948.00
2023-04-14T00:02:34.811Z,1928.00
2023-04-14T00:03:34.960Z,1919.00
2023-04-14T00:04:34.986Z,1939.00
2023-04-14T00:05:34.904Z,1901.00
2023-04-14T00:06:34.937Z,1926.00
2023-04-14T00:07:35.041Z,1922.00
2023-04-14T00:08:35.036Z,1928.00
2023-04-14T00:09:35.196Z,1917.00
2023-04-14T00:10:35.198Z,1916.00
2023-04-14T00:11:35.238Z,1920.00
2023-04-14T00:12:35.277Z,1901.00
2023-04-14T00:13:35.323Z,1900.00
2023-04-14T00:14:35.445Z,1918.00
2023-04-14T00:15:35.478Z,1921.00
2023-04-14T00:16:35.592Z,1912.00
2023-04-14T00:17:35.606Z,1910.00
2023-04-14T00:18:35.636Z,1921.00
2023-04-14T00:19:35.742Z,1914.00
2023-04-14T00:20:35.767Z,1912.00
2023-04-14T00:21:35.890Z,1905.00
2023-04-14T00:22:35.864Z,1922.00
2023-04-14T00:23:35.972Z,1922.00
2023-04-14T00:24:35.975Z,1903.00
2023-04-14T00:25:36.096Z,1902.00
2023-04-14T00:26:36.119Z,1908.00
2023-04-14T00:27:36.169Z,1916.00
2023-04-14T00:28:36.213Z,1903.00
2023-04-14T00:29:36.328Z,1885.00
2023-04-14T00:30:36.322Z,1916.00
2023-04-14T00:31:36.507Z,1916.00
2023-04-14T00:32:36.482Z,1915.00
2023-04-14T00:33:36.540Z,1900.00
2023-04-14T00:34:36.557Z,1903.00
2023-04-14T00:35:36.628Z,1895.00
2023-04-14T00:36:36.733Z,1893.00
2023-04-14T00:37:36.745Z,1907.00
2023-04-14T00:38:36.782Z,1885.00
2023-04-14T00:39:36.897Z,1897.00
2023-04-14T00:40:36.901Z,1890.00
2023-04-14T00:41:36.970Z,1893.00
2023-04-14T00:42:37.024Z,1897.00
2023-04-14T00:43:37.091Z,1889.00
2023-04-14T00:44:37.193Z,1896.00
2023-04-14T00:45:37.250Z,1884.00
2023-04-14T00:46:37.340Z,1897.00
2023-04-14T00:47:37.349Z,1894.00
2023-04-14T00:48:37.380Z,1888.00
2023-04-14T00:49:37.443Z,1886.00
2023-04-14T00:50:37.491Z,1883.00
2023-04-14T00:51:37.561Z,1899.00
2023-04-14T00:52:37.600Z,1874.00
2023-04-14T00:53:37.646Z,1883.00
2023-04-14T00:54:37.739Z,1886.00
2023-04-14T00:55:37.799Z,1885.00
2023-04-14T00:56:37.831Z,1870.00
2023-04-14T00:57:37.936Z,1868.00
2023-04-14T00:58:37.974Z,1888.00
2023-04-14T00:59:38.046Z,1879.00
2023-04-14T01:00:38.138Z,1865.00
2023-04-14T01:01:38.249Z,1876.00
2023-04-14T01:02:38.549Z,1872.00
2023-04-14T01:03:38.367Z,1880.00
2023-04-14T01:04:49.728Z,1872.00
2023-04-14T01:05:39.322Z,1873.00
2023-04-14T01:06:38.307Z,1874.00
2023-04-14T01:07:38.322Z,1876.00
2023-04-14T01:08:38.306Z,1875.00
2023-04-14T01:09:38.264Z,1871.00
2023-04-14T01:10:38.273Z,1870.00
2023-04-14T01:11:38.291Z,1867.00
2023-04-14T01:12:38.315Z,1875.00
2023-04-14T01:13:38.250Z,1884.00
2023-04-14T01:14:38.301Z,1868.00
2023-04-14T01:15:38.381Z,1861.00
2023-04-14T01:16:38.490Z,1865.00
2023-04-14T01:17:38.459Z,1847.00
2023-04-14T01:18:38.520Z,1858.00
2023-04-14T01:19:38.521Z,1861.00
2023-04-14T01:20:38.556Z,1864.00
2023-04-14T01:21:38.593Z,1869.00
2023-04-14T01:22:38.654Z,1864.00
2023-04-14T01:23:38.742Z,1858.00
2023-04-14T01:24:38.743Z,1860.00
2023-04-14T01:25:38.774Z,1856.00
2023-04-14T01:26:38.812Z,1852.00
2023-04-14T01:27:38.903Z,1858.00
2023-04-14T01:28:38.933Z,1849.00
2023-04-14T01:29:39.024Z,1853.00
2023-04-14T01:30:39.048Z,1856.00
2023-04-14T01:31:39.205Z,1849.00
2023-04-14T01:32:39.165Z,1852.00
2023-04-14T01:33:39.219Z,1855.00
2023-04-14T01:34:39.255Z,1867.00
2023-04-14T01:35:39.296Z,1853.00
2023-04-14T01:36:39.352Z,1856.00
2023-04-14T01:37:39.406Z,1849.00
2023-04-14T01:38:39.466Z,1855.00
2023-04-14T01:39:39.514Z,1834.00
2023-04-14T01:40:39.527Z,1834.00
2023-04-14T01:41:39.575Z,1843.00
2023-04-14T01:42:39.667Z,1849.00
2023-04-14T01:43:39.642Z,1837.00
2023-04-14T01:44:39.733Z,1838.00
2023-04-14T01:45:39.824Z,1832.00
2023-04-14T01:46:39.874Z,1842.00
2023-04-14T01:47:39.921Z,1841.00
2023-04-14T01:48:39.974Z,1843.00
2023-04-14T01:49:40.030Z,1822.00
2023-04-14T01:50:40.062Z,1831.00
2023-04-14T01:51:40.091Z,1827.00
2023-04-14T01:52:40.172Z,1836.00
2023-04-14T01:53:40.195Z,1838.00
2023-04-14T01:54:40.282Z,1839.00
2023-04-14T01:55:40.337Z,1838.00
2023-04-14T01:56:40.343Z,1819.00
2023-04-14T01:57:40.401Z,1847.00
2023-04-14T01:58:40.448Z,1831.00
2023-04-14T01:59:40.519Z,1827.00
2023-04-14T02:00:40.664Z,1831.00
2023-04-14T02:01:40.564Z,1811.00
2023-04-14T02:02:40.731Z,1817.00
2023-04-14T02:03:40.756Z,1824.00
2023-04-14T02:04:40.757Z,1825.00
2023-04-14T02:05:40.774Z,1819.00
2023-04-14T02:06:40.833Z,1812.00
2023-04-14T02:07:40.856Z,1822.00
2023-04-14T02:08:40.888Z,1825.00
2023-04-14T02:09:40.951Z,1816.00
2023-04-14T02:10:40.990Z,1814.00
2023-04-14T02:11:41.063Z,1820.00
2023-04-14T02:12:41.099Z,1813.00
2023-04-14T02:13:41.089Z,1806.00
2023-04-14T02:14:41.143Z,1808.00
2023-04-14T02:15:41.194Z,1823.00
2023-04-14T02:16:41.265Z,1813.00
2023-04-14T02:17:41.287Z,1812.00
2023-04-14T02:18:41.334Z,1803.00
2023-04-14T02:19:41.347Z,1804.00
2023-04-14T02:20:41.386Z,1813.00
2023-04-14T02:21:41.439Z,1795.00
2023-04-14T02:22:41.481Z,1819.00
2023-04-14T02:23:41.652Z,1815.00
2023-04-14T02:24:41.656Z,1810.00
2023-04-14T02:25:41.678Z,1806.00
2023-04-14T02:26:41.660Z,1805.00
2023-04-14T02:27:41.727Z,1810.00
2023-04-14T02:28:41.747Z,1792.00
2023-04-14T02:29:41.852Z,1812.00
2023-04-14T02:30:41.873Z,1803.00
2023-04-14T02:31:41.929Z,1795.00
2023-04-14T02:32:42.004Z,1792.00
2023-04-14T02:33:41.980Z,1774.00
2023-04-14T02:34:42.040Z,1794.00
2023-04-14T02:35:42.008Z,1782.00
2023-04-14T02:36:42.065Z,1793.00
2023-04-14T02:37:42.194Z,1785.00
2023-04-14T02:38:42.167Z,1782.00
2023-04-14T02:39:42.208Z,1788.00
2023-04-14T02:40:42.233Z,1813.00
2023-04-14T02:41:42.285Z,1786.00
2023-04-14T02:42:42.349Z,1797.00
2023-04-14T02:43:42.354Z,1801.00
2023-04-14T02:44:42.417Z,1788.00
2023-04-14T02:45:42.494Z,1783.00
2023-04-14T02:46:42.565Z,1792.00
2023-04-14T02:47:42.583Z,1783.00
2023-04-14T02:48:42.536Z,1793.00
2023-04-14T02:49:42.604Z,1792.00
2023-04-14T02:50:42.590Z,1776.00
2023-04-14T02:51:42.637Z,1785.00
2023-04-14T02:52:42.686Z,1777.00
2023-04-14T02:53:42.712Z,1775.00
2023-04-14T02:54:42.788Z,1781.00
2023-04-14T02:55:42.794Z,1786.00
2023-04-14T02:56:42.810Z,1769.00
2023-04-14T02:57:42.858Z,1780.00
2023-04-14T02:58:42.888Z,1780.00
2023-04-14T02:59:42.941Z,1776.00
2023-04-14T03:00:43.072Z,1778.00
2023-04-14T03:01:43.042Z,1767.00
2023-04-14T03:02:43.121Z,1779.00
2023-04-14T03:03:43.113Z,1771.00
2023-04-14T03:04:43.136Z,1775.00
2023-04-14T03:05:43.166Z,1765.00
2023-04-14T03:06:43.181Z,1759.00
2023-04-14T03:07:43.241Z,1768.00
2023-04-14T03:08:43.236Z,1774.00
2023-04-14T03:09:43.296Z,1764.00
2023-04-14T03:10:43.320Z,1757.00
2023-04-14T03:11:43.349Z,1753.00
2023-04-14T03:12:43.439Z,1758.00
2023-04-14T03:13:43.434Z,1772.00
2023-04-14T03:14:43.469Z,1768.00
2023-04-14T03:15:43.563Z,1756.00
2023-04-14T03:16:43.554Z,1762.00
2023-04-14T03:17:43.648Z,1771.00
2023-04-14T03:18:43.606Z,1764.00
2023-04-14T03:19:43.627Z,1764.00
2023-04-14T03:20:43.709Z,1743.00
2023-04-14T03:21:43.761Z,1757.00
2023-04-14T03:22:43.727Z,1751.00
2023-04-14T03:23:43.821Z,1759.00
2023-04-14T03:24:43.769Z,1742.00
2023-04-14T03:25:43.816Z,1757.00
2023-04-14T03:26:43.853Z,1740.00
2023-04-14T03:27:43.932Z,1751.00
2023-04-14T03:28:43.933Z,1747.00
2023-04-14T03:29:43.989Z,1750.00
2023-04-14T03:30:44.032Z,1765.00
2023-04-14T03:31:44.117Z,1731.00
2023-04-14T03:32:44.151Z,1743.00
2023-04-14T03:33:44.103Z,1748.00
2023-04-14T03:34:44.195Z,1754.00
2023-04-14T03:35:44.254Z,1738.00
2023-04-14T03:36:44.234Z,1744.00
2023-04-14T03:37:44.296Z,1751.00
2023-04-14T03:38:44.317Z,1744.00
2023-04-14T03:39:44.318Z,1736.00
2023-04-14T03:40:44.379Z,1746.00
2023-04-14T03:41:44.413Z,1737.00
2023-04-14T03:42:44.419Z,1735.00
2023-04-14T03:43:44.456Z,1745.00
2023-04-14T03:44:44.501Z,1744.00
2023-04-14T03:45:44.527Z,1722.00
2023-04-14T03:46:44.620Z,1739.00
2023-04-14T03:47:44.707Z,1727.00
2023-04-14T03:48:44.688Z,1736.00
2023-04-14T03:49:44.697Z,1738.00
2023-04-14T03:50:44.768Z,1712.00
2023-04-14T03:51:44.776Z,1729.00
2023-04-14T03:52:44.854Z,1726.00
2023-04-14T03:53:44.932Z,1732.00
2023-04-14T03:54:44.929Z,1727.00
2023-04-14T03:55:44.999Z,1715.00
2023-04-14T03:56:45.046Z,1728.00
2023-04-14T03:57:45.065Z,1723.00
2023-04-14T03:58:45.126Z,1723.00
2023-04-14T03:59:45.186Z,1712.00
2023-04-14T04:00:45.219Z,1731.00
2023-04-14T04:01:45.261Z,1724.00
2023-04-14T04:02:45.409Z,1723.00
2023-04-14T04:03:45.512Z,1709.00
2023-04-14T04:04:45.605Z,1721.00
2023-04-14T04:05:45.399Z,1653.00
2023-04-14T04:06:45.439Z,1632.00
2023-04-14T04:07:45.466Z,1591.00
2023-04-14T04:08:45.558Z,1568.00
2023-04-14T04:09:45.583Z,1524.00
2023-04-14T04:10:45.620Z,1474.00
2023-04-14T04:11:45.603Z,1457.00
2023-04-14T04:12:45.611Z,1379.00
2023-04-14T04:13:45.625Z,1335.00
2023-04-14T04:14:45.683Z,1302.00
2023-04-14T04:15:45.646Z,1245.00
2023-04-14T04:16:45.667Z,1185.00
2023-04-14T04:17:45.736Z,1107.00
2023-04-14T04:18:45.650Z,1076.00
2023-04-14T04:19:45.650Z,1058.00
2023-04-14T04:20:45.633Z,1012.00
2023-04-14T04:21:45.630Z,980.00
2023-04-14T04:22:45.637Z,946.00
2023-04-14T04:23:45.636Z,884.00
2023-04-14T04:24:45.603Z,833.00
2023-04-14T04:25:45.629Z,807.00
2023-04-14T04:26:45.664Z,794.00
2023-04-14T04:27:45.690Z,756.00
2023-04-14T04:28:45.605Z,706.00
2023-04-14T04:29:45.642Z,702.00
2023-04-14T04:30:45.705Z,704.00
2023-04-14T04:31:45.656Z,703.00
2023-04-14T04:32:45.786Z,729.00
2023-04-14T04:33:45.628Z,721.00
2023-04-14T04:34:45.660Z,737.00
2023-04-14T04:35:45.674Z,746.00
2023-04-14T04:36:45.663Z,730.00
2023-04-14T04:37:45.668Z,727.00
2023-04-14T04:38:45.683Z,770.00
2023-04-14T04:39:45.652Z,778.00
2023-04-14T04:40:45.658Z,804.00
2023-04-14T04:41:45.685Z,824.00
2023-04-14T04:42:45.677Z,818.00
2023-04-14T04:43:45.681Z,819.00
2023-04-14T04:44:45.679Z,838.00
2023-04-14T04:45:45.693Z,833.00
2023-04-14T04:46:45.702Z,867.00
2023-04-14T04:47:45.648Z,896.00
2023-04-14T04:48:45.675Z,910.00
2023-04-14T04:49:45.646Z,944.00
2023-04-14T04:50:45.765Z,948.00
2023-04-14T04:51:45.631Z,956.00
2023-04-14T04:52:45.644Z,965.00
2023-04-14T04:53:45.673Z,975.00
2023-04-14T04:54:45.724Z,961.00
2023-04-14T04:55:45.700Z,988.00
2023-04-14T04:56:45.690Z,969.00
2023-04-14T04:57:45.706Z,983.00
2023-04-14T04:58:45.700Z,1007.00
2023-04-14T04:59:45.726Z,1037.00
2023-04-14T05:00:45.751Z,1045.00
2023-04-14T05:01:45.876Z,1055.00
2023-04-14T05:02:45.879Z,1079.00
2023-04-14T05:03:45.821Z,1073.00
2023-04-14T05:04:45.866Z,1063.00
2023-04-14T05:05:45.828Z,1091.00
2023-04-14T05:06:45.865Z,1101.00
2023-04-14T05:07:45.872Z,1108.00
2023-04-14T05:08:45.990Z,1134.00
2023-04-14T05:09:46.009Z,1133.00
2023-04-14T05:10:45.954Z,1122.00
2023-04-14T05:11:45.958Z,1110.00
2023-04-14T05:12:46.023Z,1133.00
2023-04-14T05:13:46.050Z,1161.00
2023-04-14T05:14:46.074Z,1174.00
2023-04-14T05:15:46.123Z,1168.00
2023-04-14T05:16:46.176Z,1178.00
2023-04-14T05:17:46.225Z,1174.00
2023-04-14T05:18:46.189Z,1167.00
2023-04-14T05:19:46.235Z,1168.00
2023-04-14T05:20:46.240Z,1196.00
2023-04-14T05:21:46.245Z,1201.00
2023-04-14T05:22:46.378Z,1195.00
2023-04-14T05:23:46.321Z,1207.00
2023-04-14T05:24:46.422Z,1224.00
2023-04-14T05:25:47.627Z,1223.00
2023-04-14T05:26:58.344Z,1227.00
2023-04-14T05:27:47.451Z,1228.00
2023-04-14T05:28:46.436Z,1231.00
2023-04-14T05:29:46.471Z,1235.00
2023-04-14T05:30:46.469Z,1247.00
2023-04-14T05:31:46.520Z,1257.00
2023-04-14T05:32:46.433Z,1266.00
2023-04-14T05:33:46.399Z,1264.00
2023-04-14T05:34:46.398Z,1316.00
2023-04-14T05:35:46.422Z,1371.00
2023-04-14T05:36:46.397Z,1401.00
2023-04-14T05:37:46.702Z,1395.00
2023-04-14T05:38:46.362Z,1438.00
2023-04-14T05:39:46.361Z,1437.00
2023-04-14T05:40:46.368Z,1466.00
2023-04-14T05:41:46.372Z,1495.00
2023-04-14T05:42:46.343Z,1484.00
2023-04-14T05:43:46.324Z,1500.00
2023-04-14T05:44:46.338Z,1520.00
2023-04-14T05:45:46.359Z,1522.00
2023-04-14T05:46:46.341Z,1542.00
2023-04-14T05:47:47.615Z,1541.00
2023-04-14T05:48:46.297Z,1529.00
2023-04-14T05:49:46.689Z,1554.00
2023-04-14T05:50:46.302Z,1571.00
2023-04-14T05:51:46.285Z,1560.00
2023-04-14T05:52:46.313Z,1579.00
2023-04-14T05:53:46.255Z,1566.00
2023-04-14T05:54:46.298Z,1575.00
2023-04-14T05:55:46.265Z,1571.00
2023-04-14T05:56:46.240Z,1570.00
2023-04-14T05:57:46.296Z,1589.00
2023-04-14T05:58:46.247Z,1580.00
2023-04-14T05:59:46.248Z,1586.00
2023-04-14T06:00:46.245Z,1585.00
2023-04-14T06:01:46.299Z,1575.00
2023-04-14T06:02:46.369Z,1568.00
2023-04-14T06:03:46.460Z,1563.00
2023-04-14T06:04:46.396Z,1569.00
2023-04-14T06:05:46.291Z,1545.00
2023-04-14T06:06:46.322Z,1534.00
2023-04-14T06:07:46.653Z,1533.00
2023-04-14T06:08:46.328Z,1505.00
2023-04-14T06:09:46.359Z,1512.00
2023-04-14T06:10:46.361Z,1496.00
2023-04-14T06:11:46.441Z,1507.00
2023-04-14T06:12:46.668Z,1493.00
2023-04-14T06:13:46.428Z,1487.00
2023-04-14T06:14:46.661Z,1472.00
2023-04-14T06:15:46.498Z,1481.00
2023-04-14T06:16:46.530Z,1462.00
2023-04-14T06:17:46.544Z,1450.00
2023-04-14T06:18:46.570Z,1455.00
2023-04-14T06:19:46.666Z,1446.00
2023-04-14T06:20:46.580Z,1437.00
2023-04-14T06:21:46.723Z,1449.00
2023-04-14T06:22:46.645Z,1424.00
2023-04-14T06:23:46.657Z,1410.00
2023-04-14T06:24:46.767Z,1411.00
2023-04-14T06:25:46.682Z,1393.00
2023-04-14T06:26:46.726Z,1391.00
2023-04-14T06:27:46.727Z,1390.00
2023-04-14T06:28:46.798Z,1377.00
2023-04-14T06:29:47.217Z,1382.00
2023-04-14T06:30:46.746Z,1386.00
2023-04-14T06:31:46.853Z,1378.00
2023-04-14T06:32:46.871Z,1384.00
2023-04-14T06:33:46.862Z,1364.00
2023-04-14T06:34:46.828Z,1375.00
2023-04-14T06:35:46.863Z,1348.00
2023-04-14T06:36:46.853Z,1372.00
2023-04-14T06:37:46.907Z,1366.00
2023-04-14T06:38:46.911Z,1356.00
2023-04-14T06:39:47.184Z,1364.00
2023-04-14T06:40:47.184Z,1338.00
2023-04-14T06:41:47.196Z,1337.00
2023-04-14T06:42:46.924Z,1344.00
2023-04-14T06:43:46.938Z,1349.00
2023-04-14T06:44:47.018Z,1364.00
2023-04-14T06:47:05.722Z,500.00
2023-04-14T06:48:05.652Z,500.00
2023-04-14T06:49:05.770Z,500.00
2023-04-14T06:50:05.569Z,500.00
2023-04-14T06:51:05.778Z,500.00
2023-04-14T06:52:05.515Z,502.00
2023-04-14T06:53:05.534Z,503.00
2023-04-14T06:54:05.502Z,501.00
2023-04-14T06:55:05.510Z,502.00
2023-04-14T06:56:05.509Z,507.00
2023-04-14T06:57:05.478Z,500.00
2023-04-14T06:58:05.515Z,507.00
2023-04-14T06:59:05.480Z,500.00
2023-04-14T07:00:05.486Z,503.00
2023-04-14T07:01:05.488Z,508.00
2023-04-14T07:02:05.458Z,510.00
2023-04-14T07:03:06.971Z,506.00
2023-04-14T07:04:07.777Z,506.00
2023-04-14T07:05:05.491Z,512.00
2023-04-14T07:06:05.431Z,511.00
2023-04-14T07:07:05.429Z,507.00
2023-04-14T07:08:05.447Z,513.00
2023-04-14T07:09:05.354Z,512.00
2023-04-14T07:10:05.440Z,509.00
2023-04-14T07:11:05.447Z,511.00
2023-04-14T07:12:05.375Z,512.00
2023-04-14T07:13:05.769Z,518.00
2023-04-14T07:14:05.362Z,512.00
2023-04-14T07:15:05.345Z,516.00
2023-04-14T07:16:05.377Z,522.00
2023-04-14T07:17:05.352Z,512.00
2023-04-14T07:18:05.374Z,518.00
2023-04-14T07:19:05.311Z,517.00
2023-04-14T07:20:05.351Z,519.00
2023-04-14T07:21:05.306Z,518.00
2023-04-14T07:22:05.273Z,517.00
2023-04-14T07:23:05.279Z,520.00
2023-04-14T07:24:05.231Z,520.00
2023-04-14T07:25:05.308Z,511.00
2023-04-14T07:26:05.768Z,524.00
2023-04-14T07:27:05.259Z,519.00
2023-04-14T07:28:05.286Z,522.00
2023-04-14T07:29:05.220Z,520.00
2023-04-14T07:30:05.224Z,523.00
2023-04-14T07:31:05.284Z,523.00
2023-04-14T07:32:05.240Z,523.00
2023-04-14T07:33:05.283Z,524.00
2023-04-14T07:34:05.191Z,521.00
2023-04-14T07:35:05.152Z,527.00
2023-04-14T07:36:05.227Z,529.00
2023-04-14T07:37:05.171Z,532.00
2023-04-14T07:38:05.196Z,532.00
2023-04-14T07:39:05.151Z,531.00
2023-04-14T07:40:05.142Z,529.00
2023-04-14T07:41:05.158Z,531.00
2023-04-14T07:42:05.138Z,535.00
2023-04-14T07:43:05.222Z,536.00
2023-04-14T07:44:05.259Z,536.00
2023-04-14T07:45:05.135Z,531.00
2023-04-14T07:46:05.652Z,532.00
2023-04-14T07:47:05.115Z,529.00
2023-04-14T07:48:05.103Z,534.00
2023-04-14T07:49:05.106Z,531.00
2023-04-14T07:50:05.536Z,529.00
2023-04-14T07:51:05.058Z,527.00
2023-04-14T07:52:05.069Z,533.00
2023-04-14T07:53:05.102Z,526.00
2023-04-14T07:54:05.033Z,531.00
2023-04-14T07:55:05.035Z,532.00
2023-04-14T07:56:05.007Z,529.00
2023-04-14T07:57:05.068Z,528.00
2023-04-14T07:58:05.012Z,527.00
2023-04-14T07:59:04.972Z,514.00
2023-04-14T08:00:05.021Z,523.00
2023-04-14T08:01:05.029Z,518.00
2023-04-14T08:02:05.118Z,519.00
2023-04-14T08:03:05.223Z,516.00
2023-04-14T08:04:05.066Z,518.00
2023-04-14T08:05:05.003Z,513.00
2023-04-14T08:06:04.962Z,509.00
2023-04-14T08:07:04.953Z,513.00
2023-04-14T08:08:05.004Z,516.00
2023-04-14T08:09:04.927Z,514.00
2023-04-14T08:10:04.938Z,514.00
2023-04-14T08:11:04.950Z,509.00
2023-04-14T08:12:04.955Z,513.00
2023-04-14T08:13:04.896Z,514.00
2023-04-14T08:14:04.906Z,517.00
2023-04-14T08:15:04.910Z,515.00
2023-04-14T08:16:04.934Z,520.00
2023-04-14T08:17:04.876Z,515.00
2023-04-14T08:18:04.887Z,514.00
2023-04-14T08:19:05.372Z,516.00
2023-04-14T08:20:04.858Z,514.00
2023-04-14T08:21:04.901Z,514.00
2023-04-14T08:22:04.902Z,520.00
2023-04-14T08:23:04.909Z,520.00
2023-04-14T08:24:04.863Z,513.00
2023-04-14T08:25:04.896Z,525.00
2023-04-14T08:26:05.290Z,520.00
2023-04-14T08:27:04.831Z,513.00
2023-04-14T08:28:04.907Z,518.00
2023-04-14T08:29:04.860Z,525.00
2023-04-14T08:30:09.487Z,524.00
2023-04-14T08:31:04.844Z,525.00
2023-04-14T08:32:05.016Z,525.00
2023-04-14T08:33:05.031Z,524.00
2023-04-14T08:34:05.019Z,522.00
2023-04-14T08:35:37.933Z,507.00
2023-04-14T08:36:06.089Z,509.00
2023-04-14T08:37:05.072Z,519.00
2023-04-14T08:38:05.085Z,524.00
2023-04-14T08:39:05.074Z,513.00
2023-04-14T08:40:05.027Z,511.00
2023-04-14T08:41:05.037Z,516.00
2023-04-14T08:42:04.989Z,500.00
2023-04-14T08:43:05.012Z,500.00
2023-04-14T08:44:04.999Z,496.00
2023-04-14T08:45:05.018Z,500.00
2023-04-14T08:46:04.994Z,500.00
2023-04-14T08:47:04.966Z,500.00
2023-04-14T08:48:05.124Z,500.00
2023-04-14T08:49:04.976Z,500.00
2023-04-14T08:50:05.001Z,507.00
2023-04-14T08:51:04.977Z,503.00
2023-04-14T08:52:05.008Z,518.00
2023-04-14T08:53:04.959Z,519.00
2023-04-14T08:54:04.988Z,531.00
2023-04-14T08:55:05.031Z,539.00
2023-04-14T08:56:05.140Z,547.00
2023-04-14T08:57:05.200Z,557.00
2023-04-14T08:58:05.196Z,558.00
2023-04-14T08:59:05.255Z,560.00
2023-04-14T09:00:05.258Z,564.00
2023-04-14T09:01:05.377Z,573.00
2023-04-14T09:02:05.417Z,580.00
2023-04-14T09:03:05.511Z,580.00
2023-04-14T09:04:05.828Z,587.00
2023-04-14T09:05:05.314Z,595.00
2023-04-14T09:06:05.369Z,608.00
2023-04-14T09:07:05.339Z,626.00
2023-04-14T09:08:05.313Z,631.00
2023-04-14T09:09:05.403Z,671.00
2023-04-14T09:10:05.398Z,699.00
2023-04-14T09:11:05.455Z,714.00
2023-04-14T09:12:05.502Z,749.00
2023-04-14T09:13:05.685Z,822.00
2023-04-14T09:14:05.777Z,854.00
2023-04-14T09:15:05.734Z,844.00
2023-04-14T09:16:05.740Z,892.00
2023-04-14T09:17:05.898Z,920.00
2023-04-14T09:18:05.905Z,926.00
2023-04-14T09:19:07.470Z,944.00
2023-04-14T09:20:35.251Z,927.00
2023-04-14T09:21:50.041Z,929.00
2023-04-14T09:22:06.909Z,930.00
2023-04-14T09:23:05.916Z,940.00
2023-04-14T09:24:05.889Z,955.00
2023-04-14T09:25:05.900Z,985.00
2023-04-14T09:26:05.957Z,1010.00
2023-04-14T09:27:05.862Z,1051.00
2023-04-14T09:28:05.856Z,1069.00
2023-04-14T09:29:05.866Z,1068.00
2023-04-14T09:30:05.873Z,1027.00
2023-04-14T09:31:05.874Z,1035.00
2023-04-14T09:32:05.842Z,1049.00
2023-04-14T09:33:05.901Z,1036.00
2023-04-14T09:34:05.931Z,1054.00
2023-04-14T09:35:05.862Z,1218.00
2023-04-14T09:36:05.816Z,1415.00
2023-04-14T09:37:05.775Z,1481.00
2023-04-14T09:38:05.840Z,1474.00
2023-04-14T09:39:05.779Z,1437.00
2023-04-14T09:40:05.974Z,1433.00
2023-04-14T09:41:05.794Z,1404.00
2023-04-14T09:42:05.765Z,1351.00
2023-04-14T09:43:05.773Z,1338.00
2023-04-14T09:44:05.736Z,1314.00
2023-04-14T09:45:05.866Z,1303.00
2023-04-14T09:46:05.793Z,1311.00
2023-04-14T09:47:05.745Z,1316.00
2023-04-14T09:48:05.739Z,1301.00
2023-04-14T09:49:05.749Z,1294.00
2023-04-14T09:50:05.697Z,1269.00
2023-04-14T09:51:05.713Z,1240.00
2023-04-14T09:52:05.706Z,1214.00
2023-04-14T09:53:05.668Z,1193.00
2023-04-14T09:54:06.190Z,1186.00
2023-04-14T09:55:05.680Z,1197.00
2023-04-14T09:56:05.673Z,1191.00
2023-04-14T09:57:05.619Z,1187.00
2023-04-14T09:58:05.661Z,1162.00
2023-04-14T09:59:05.870Z,1126.00
2023-04-14T10:00:05.609Z,1105.00
2023-04-14T10:01:05.640Z,1123.00
2023-04-14T10:02:05.727Z,1103.00
2023-04-14T10:03:05.677Z,1141.00
2023-04-14T10:04:05.648Z,1139.00
2023-04-14T10:05:05.946Z,1130.00
2023-04-14T10:06:05.588Z,1098.00
2023-04-14T10:07:05.568Z,1115.00
2023-04-14T10:08:05.631Z,1070.00
2023-04-14T10:09:05.574Z,1090.00
2023-04-14T10:10:05.591Z,1090.00
2023-04-14T10:11:05.653Z,1066.00
2023-04-14T10:12:06.726Z,1051.00
2023-04-14T10:13:05.522Z,1065.00
2023-04-14T10:14:05.537Z,997.00
2023-04-14T10:15:05.571Z,986.00
2023-04-14T10:16:05.609Z,990.00
2023-04-14T10:17:05.525Z,1007.00
2023-04-14T10:18:05.538Z,992.00
2023-04-14T10:19:05.888Z,968.00
2023-04-14T10:20:05.512Z,933.00
2023-04-14T10:21:05.523Z,897.00
2023-04-14T10:22:05.518Z,904.00
2023-04-14T10:23:05.479Z,930.00
2023-04-14T10:24:05.470Z,934.00
2023-04-14T10:25:05.466Z,901.00
2023-04-14T10:26:05.480Z,912.00
2023-04-14T10:27:05.559Z,892.00
2023-04-14T10:28:06.015Z,904.00
2023-04-14T10:29:05.427Z,895.00
2023-04-14T10:30:05.478Z,916.00
2023-04-14T10:31:05.490Z,896.00
2023-04-14T10:32:05.524Z,887.00
2023-04-14T10:33:05.493Z,875.00
2023-04-14T10:34:05.396Z,889.00
2023-04-14T10:35:05.430Z,873.00
2023-04-14T10:36:05.377Z,867.00
2023-04-14T10:37:05.413Z,876.00
2023-04-14T10:38:05.428Z,835.00
2023-04-14T10:39:05.449Z,876.00
2023-04-14T10:40:05.384Z,887.00
2023-04-14T10:41:05.397Z,838.00
2023-04-14T10:42:05.352Z,813.00
2023-04-14T10:43:05.360Z,828.00
2023-04-14T10:44:05.328Z,799.00
2023-04-14T10:45:05.353Z,784.00
2023-04-14T10:46:05.307Z,780.00
2023-04-14T10:47:05.749Z,766.00
2023-04-14T10:48:05.333Z,795.00
2023-04-14T10:49:05.306Z,772.00
2023-04-14T10:50:05.353Z,785.00
2023-04-14T10:51:05.372Z,799.00
2023-04-14T10:52:05.405Z,800.00
2023-04-14T10:53:05.455Z,762.00
2023-04-14T10:54:05.532Z,760.00
2023-04-14T10:55:05.537Z,761.00
2023-04-14T10:56:05.588Z,728.00
2023-04-14T10:57:05.617Z,688.00
2023-04-14T10:58:05.677Z,702.00
2023-04-14T10:59:05.717Z,707.00
2023-04-14T11:00:05.777Z,738.00
2023-04-14T11:01:05.856Z,752.00
2023-04-14T11:02:05.915Z,763.00
2023-04-14T11:03:06.001Z,779.00
2023-04-14T11:04:05.953Z,772.00
2023-04-14T11:05:05.933Z,742.00
2023-04-14T11:06:05.909Z,737.00
2023-04-14T11:07:05.976Z,733.00
2023-04-14T11:08:05.997Z,723.00
2023-04-14T11:09:06.376Z,706.00
2023-04-14T11:10:06.042Z,708.00
2023-04-14T11:11:06.056Z,694.00
2023-04-14T11:12:06.147Z,681.00
2023-04-14T11:13:06.124Z,668.00
2023-04-14T11:14:06.152Z,660.00
2023-04-14T11:15:06.165Z,662.00
2023-04-14T11:16:06.271Z,673.00
2023-04-14T11:17:06.389Z,667.00
2023-04-14T11:18:06.397Z,684.00
2023-04-14T11:19:06.242Z,704.00
2023-04-14T11:20:06.416Z,703.00
2023-04-14T11:21:06.403Z,697.00
2023-04-14T11:22:06.320Z,724.00
2023-04-14T11:23:06.309Z,716.00
2023-04-14T11:24:06.276Z,705.00
2023-04-14T11:25:06.305Z,686.00
2023-04-14T11:26:06.290Z,664.00
2023-04-14T11:27:06.338Z,656.00
2023-04-14T11:28:06.373Z,656.00
2023-04-14T11:29:06.352Z,642.00
2023-04-14T11:30:06.377Z,628.00
2023-04-14T11:31:06.383Z,621.00
2023-04-14T11:32:06.512Z,607.00
2023-04-14T11:33:06.491Z,594.00
2023-04-14T11:34:06.449Z,587.00
2023-04-14T11:35:06.471Z,564.00
2023-04-14T11:36:06.480Z,568.00
2023-04-14T11:37:06.514Z,551.00
2023-04-14T11:38:06.558Z,539.00
2023-04-14T11:39:06.648Z,524.00
2023-04-14T11:40:06.612Z,518.00
2023-04-14T11:41:06.615Z,507.00
2023-04-14T11:42:06.724Z,502.00
2023-04-14T11:43:06.727Z,505.00
2023-04-14T11:44:06.696Z,504.00
2023-04-14T11:45:06.758Z,498.00
2023-04-14T11:46:06.804Z,515.00
2023-04-14T11:47:06.879Z,505.00
2023-04-14T11:48:06.934Z,502.00
2023-04-14T11:49:06.897Z,500.00
2023-04-14T11:50:13.865Z,505.00
2023-04-14T11:51:06.902Z,504.00
2023-04-14T11:52:06.921Z,483.00
2023-04-14T11:53:06.886Z,465.00
2023-04-14T11:54:07.904Z,458.00
2023-04-14T11:55:06.883Z,460.00
2023-04-14T11:56:06.836Z,501.00
2023-04-14T11:57:06.844Z,508.00
2023-04-14T11:58:06.863Z,516.00
2023-04-14T11:59:06.858Z,526.00
2023-04-14T12:00:06.849Z,542.00
2023-04-14T12:01:06.853Z,548.00
2023-04-14T12:02:06.870Z,555.00
2023-04-14T12:03:06.925Z,555.00
2023-04-14T12:04:07.062Z,556.00
2023-04-14T12:05:06.996Z,571.00
2023-04-14T12:06:06.805Z,591.00
2023-04-14T12:07:06.907Z,605.00
2023-04-14T12:08:06.810Z,583.00
2023-04-14T12:09:06.796Z,510.00
2023-04-14T12:10:06.771Z,486.00
2023-04-14T12:11:06.767Z,503.00
2023-04-14T12:12:06.776Z,484.00
2023-04-14T12:13:06.812Z,496.00
2023-04-14T12:14:06.902Z,500.00
2023-04-14T12:15:06.757Z,500.00
2023-04-14T12:16:06.792Z,500.00
2023-04-14T12:17:06.730Z,507.00